Portada
METAR-TAF:

METAR-TAF

Aeropuertos :

Yamena, Chad

Aeropuerto Internacional de Yamena

latitud: 12-08N, longitud: 015-02E, altitud: 295 m

Observación

El informe se hizo hace 1 hora y 18 minutos, a las 14:00 UTC
Viento 5 kt del norte, variando entre norte-noroeste y este-noreste
Temperatura 33°C
Humedad 13%
Presión 1009 hPa
Visibilidad 10 km o más
sin nubes por debajo de 1500 m y sin presencia de cumulonimbus.

METAR: FTTJ 111400Z 36005KT 330V060 CAVOK 33/01 Q1009 NOSIG

Hora: 16:18 (15:18 UTC)

Pronóstico

El informe se hizo hace 4 horas y 18 minutos, a las 11:00 UTC
Pronóstico válido del 11 a las 12 UTC al 12 a las 18 UTC
Viento 8 kt del norte-noroeste
Visibilidad: 8000 m
Temporalmente
del 11 a las 16 UTC al 11 a las 19 UTC
Visibilidad: 4000 m
calima

TAF: FTTJ 111100Z 1112/1218 34008KT 8000 NSC TEMPO 1116/1119 4000 HZ

Observaciones y pronósticos meteorológicos de más de 4000 aeropuertos (mensajes METAR y TAF).

Los puntos amarillos y rojos representan las estaciones disponibles.

Ponga el ratón en el punto deseado para ver el nombre de la estación.

Haga clic para ver las observaciones y los pronósticos meteorológicos.

Para cambiar el mapa : haga clic en los botones verdes con una cruz de color negro para hacer un zoom, en el botón verde con un guión para alejar o en las flechas verdes para mapas adyacentes.


METAR-TAF: